createdAt,value
2023-02-27T00:00:14.619Z,-2.68
2023-02-27T00:02:47.499Z,-2.62
2023-02-27T00:05:14.765Z,-2.63
2023-02-27T00:07:44.045Z,-2.52
2023-02-27T00:10:12.544Z,-2.46
2023-02-27T00:12:39.342Z,-2.51
2023-02-27T00:15:10.901Z,-2.57
2023-02-27T00:17:38.284Z,-2.58
2023-02-27T00:20:07.231Z,-2.69
2023-02-27T00:22:33.912Z,-2.83
2023-02-27T00:25:00.447Z,-2.81
2023-02-27T00:27:27.024Z,-2.80
2023-02-27T00:29:53.459Z,-2.69
2023-02-27T00:32:20.005Z,-2.73
2023-02-27T00:34:47.097Z,-2.79
2023-02-27T00:37:13.994Z,-2.81
2023-02-27T00:39:40.450Z,-2.96
2023-02-27T00:42:07.154Z,-2.60
2023-02-27T00:44:33.765Z,-2.72
2023-02-27T00:47:00.481Z,-3.20
2023-02-27T00:49:27.073Z,-2.89
2023-02-27T00:51:53.603Z,-2.87
2023-02-27T00:54:20.812Z,-2.82
2023-02-27T00:56:47.345Z,-2.94
2023-02-27T00:59:13.912Z,-2.90
2023-02-27T01:01:40.611Z,-3.42
2023-02-27T01:04:07.551Z,-2.92
2023-02-27T01:06:34.185Z,-2.74
2023-02-27T01:09:00.760Z,-3.05
2023-02-27T01:11:27.613Z,-3.04
2023-02-27T01:13:54.500Z,-2.78
2023-02-27T01:16:20.977Z,-3.38
2023-02-27T01:18:47.542Z,-3.52
2023-02-27T01:21:15.564Z,-2.84
2023-02-27T01:23:44.984Z,-2.99
2023-02-27T01:26:11.937Z,-3.32
2023-02-27T01:28:38.605Z,-3.52
2023-02-27T01:31:05.262Z,-2.91
2023-02-27T01:33:31.945Z,-2.97
2023-02-27T01:36:00.379Z,-3.03
2023-02-27T01:38:26.851Z,-3.58
2023-02-27T01:40:53.417Z,-2.79
2023-02-27T01:43:21.861Z,-3.03
2023-02-27T01:45:49.253Z,-2.75
2023-02-27T01:48:26.765Z,-2.98
2023-02-27T01:50:58.387Z,-2.74
2023-02-27T01:53:28.620Z,-3.34
2023-02-27T01:55:59.220Z,-2.68
2023-02-27T01:58:27.054Z,-2.95
2023-02-27T02:00:54.653Z,-2.68
2023-02-27T02:03:37.518Z,-2.67
2023-02-27T02:06:06.049Z,-2.67
2023-02-27T02:08:36.925Z,-2.82
2023-02-27T02:11:04.032Z,-2.70
2023-02-27T02:13:31.633Z,-3.10
2023-02-27T02:16:12.248Z,-2.79
2023-02-27T02:19:13.638Z,-3.03
2023-02-27T02:21:40.048Z,-2.59
2023-02-27T02:24:44.141Z,-2.73
2023-02-27T02:27:19.923Z,-2.63
2023-02-27T02:30:08.380Z,-2.59
2023-02-27T02:33:03.103Z,-2.84
2023-02-27T02:35:51.462Z,-2.76
2023-02-27T02:38:36.852Z,-2.77
2023-02-27T02:41:20.603Z,-2.87
2023-02-27T02:44:24.313Z,-2.82
2023-02-27T02:47:19.563Z,-3.07
2023-02-27T02:50:13.182Z,-2.74
2023-02-27T02:52:58.796Z,-2.89
2023-02-27T02:55:43.704Z,-2.85
2023-02-27T02:58:24.941Z,-3.26
2023-02-27T03:01:03.471Z,-2.99
2023-02-27T03:03:39.322Z,-2.96
2023-02-27T03:06:11.658Z,-2.99
2023-02-27T03:08:46.380Z,-2.76
2023-02-27T03:11:13.228Z,-2.93
2023-02-27T03:13:56.549Z,-3.26
2023-02-27T03:16:41.225Z,-3.24
2023-02-27T03:19:21.080Z,-2.95
2023-02-27T03:22:02.729Z,-3.10
2023-02-27T03:24:39.938Z,-3.25
2023-02-27T03:27:09.135Z,-3.00
2023-02-27T03:29:46.592Z,-2.99
2023-02-27T03:32:18.775Z,-3.10
2023-02-27T03:34:45.950Z,-2.88
2023-02-27T03:37:25.008Z,-2.92
2023-02-27T03:40:01.352Z,-3.01
2023-02-27T03:42:41.796Z,-2.91
2023-02-27T03:45:19.536Z,-2.90
2023-02-27T03:47:46.589Z,-3.10
2023-02-27T03:50:13.403Z,-2.91
2023-02-27T03:52:40.994Z,-2.99
2023-02-27T03:55:18.257Z,-2.93
2023-02-27T03:57:48.009Z,-3.02
2023-02-27T04:00:19.294Z,-2.78
2023-02-27T04:02:50.490Z,-3.00
2023-02-27T04:05:21.797Z,-2.94
2023-02-27T04:08:02.949Z,-2.90
2023-02-27T04:10:41.440Z,-2.82
2023-02-27T04:13:29.632Z,-2.87
2023-02-27T04:16:15.727Z,-2.73
2023-02-27T04:19:16.367Z,-2.85
2023-02-27T04:21:48.773Z,-2.83
2023-02-27T04:24:51.032Z,-2.99
2023-02-27T04:27:35.803Z,-2.94
2023-02-27T04:30:10.433Z,-2.85
2023-02-27T04:32:39.942Z,-2.78
2023-02-27T04:35:15.613Z,-2.79
2023-02-27T04:38:05.403Z,-2.76
2023-02-27T04:40:43.833Z,-2.82
2023-02-27T04:43:14.857Z,-2.93
2023-02-27T04:45:44.810Z,-2.94
2023-02-27T04:48:20.789Z,-2.78
2023-02-27T04:50:53.950Z,-2.79
2023-02-27T04:53:37.669Z,-2.93
2023-02-27T04:56:10.462Z,-2.87
2023-02-27T04:58:41.863Z,-2.79
2023-02-27T05:01:26.388Z,-2.88
2023-02-27T05:03:55.169Z,-2.76
2023-02-27T05:06:27.395Z,-2.85
2023-02-27T05:08:59.574Z,-2.75
2023-02-27T05:11:49.143Z,-2.76
2023-02-27T05:14:21.642Z,-2.93
2023-02-27T05:16:54.142Z,-2.89
2023-02-27T05:19:21.081Z,-3.03
2023-02-27T05:22:11.072Z,-2.73
2023-02-27T05:25:00.230Z,-2.95
2023-02-27T05:27:46.866Z,-2.89
2023-02-27T05:30:38.809Z,-2.90
2023-02-27T05:33:13.593Z,-2.79
2023-02-27T05:35:49.053Z,-2.73
2023-02-27T05:38:25.548Z,-2.88
2023-02-27T05:41:03.736Z,-2.89
2023-02-27T05:43:42.317Z,-2.94
2023-02-27T05:46:17.342Z,-2.86
2023-02-27T05:48:59.623Z,-2.91
2023-02-27T05:51:29.737Z,-3.04
2023-02-27T05:54:39.963Z,-2.93
2023-02-27T05:57:10.385Z,-2.88
2023-02-27T05:59:55.207Z,-2.88
2023-02-27T06:02:21.815Z,-2.96
2023-02-27T06:04:48.558Z,-3.00
2023-02-27T06:07:15.988Z,-2.89
2023-02-27T06:09:44.394Z,-3.36
2023-02-27T06:12:10.897Z,-3.13
2023-02-27T06:14:37.355Z,-2.99
2023-02-27T06:17:03.980Z,-3.08
2023-02-27T06:19:30.497Z,-2.94
2023-02-27T06:21:56.922Z,-3.04
2023-02-27T06:24:23.346Z,-2.92
2023-02-27T06:26:51.924Z,-3.27
2023-02-27T06:29:18.421Z,-3.00
2023-02-27T06:31:44.889Z,-2.91
2023-02-27T06:34:11.565Z,-3.00
2023-02-27T06:36:37.996Z,-3.02
2023-02-27T06:39:04.931Z,-3.05
2023-02-27T06:41:31.473Z,-2.92
2023-02-27T06:43:58.117Z,-2.76
2023-02-27T06:46:24.898Z,-2.80
2023-02-27T06:48:51.595Z,-2.86
2023-02-27T06:51:18.102Z,-2.86
2023-02-27T06:53:44.680Z,-2.77
2023-02-27T06:56:11.127Z,-2.74
2023-02-27T06:58:37.641Z,-2.78
2023-02-27T07:01:04.227Z,-2.70
2023-02-27T07:03:30.796Z,-2.86
2023-02-27T07:05:58.569Z,-2.66
2023-02-27T07:08:25.097Z,-2.93
2023-02-27T07:10:51.554Z,-2.58
2023-02-27T07:13:19.711Z,-2.60
2023-02-27T07:15:46.595Z,-2.66
2023-02-27T07:18:13.177Z,-2.50
2023-02-27T07:20:40.228Z,-2.43
2023-02-27T07:23:06.894Z,-2.52
2023-02-27T07:25:33.345Z,-2.72
2023-02-27T07:27:59.801Z,-2.41
2023-02-27T07:30:26.619Z,-2.57
2023-02-27T07:32:55.370Z,-2.47
2023-02-27T07:35:22.650Z,-2.64
2023-02-27T07:37:49.174Z,-2.35
2023-02-27T07:40:15.724Z,-2.86
2023-02-27T07:42:42.420Z,-2.45
2023-02-27T07:45:09.903Z,-2.33
2023-02-27T07:47:36.865Z,-2.58
2023-02-27T07:50:04.782Z,-2.52
2023-02-27T07:52:32.429Z,-2.45
2023-02-27T07:54:58.891Z,-2.28
2023-02-27T07:57:25.466Z,-2.58
2023-02-27T07:59:51.979Z,-2.16
2023-02-27T08:02:19.029Z,-2.10
2023-02-27T08:04:45.654Z,-1.92
2023-02-27T08:07:12.110Z,-2.20
2023-02-27T08:09:38.572Z,-1.82
2023-02-27T08:12:05.222Z,-1.86
2023-02-27T08:14:31.749Z,-1.66
2023-02-27T08:17:02.983Z,-1.66
2023-02-27T08:19:30.592Z,-2.03
2023-02-27T08:21:59.462Z,-1.91
2023-02-27T08:24:26.093Z,-1.98
2023-02-27T08:26:52.546Z,-1.79
2023-02-27T08:29:21.555Z,-2.44
2023-02-27T08:31:57.218Z,-2.01
2023-02-27T08:34:23.785Z,-1.96
2023-02-27T08:36:50.405Z,-1.84
2023-02-27T08:39:20.130Z,-2.29
2023-02-27T08:41:52.799Z,-1.75
2023-02-27T08:44:21.114Z,-1.53
2023-02-27T08:46:48.682Z,-2.05
2023-02-27T08:49:15.286Z,-1.63
2023-02-27T08:51:49.163Z,-2.05
2023-02-27T08:54:16.199Z,-2.05
2023-02-27T08:56:44.562Z,-1.75
2023-02-27T08:59:13.265Z,-1.68
2023-02-27T09:01:40.230Z,-1.96
2023-02-27T09:04:08.386Z,-1.58
2023-02-27T09:06:37.332Z,-1.95
2023-02-27T09:09:07.324Z,-1.33
2023-02-27T09:11:34.132Z,-2.06
2023-02-27T09:14:06.188Z,-1.79
2023-02-27T09:16:32.779Z,-1.54
2023-02-27T09:18:59.509Z,-1.37
2023-02-27T09:21:27.183Z,-1.67
2023-02-27T09:24:02.622Z,-1.45
2023-02-27T09:26:44.311Z,-1.80
2023-02-27T09:29:12.526Z,-1.36
2023-02-27T09:31:40.798Z,-1.34
2023-02-27T09:34:07.749Z,-1.29
2023-02-27T09:36:34.232Z,-1.40
2023-02-27T09:39:00.901Z,-1.26
2023-02-27T09:41:52.397Z,-1.25
2023-02-27T09:44:46.672Z,-1.29
2023-02-27T09:47:30.265Z,-1.34
2023-02-27T09:50:04.193Z,-1.36
2023-02-27T09:52:32.868Z,-1.29
2023-02-27T09:54:59.633Z,-1.36
2023-02-27T09:58:02.064Z,-1.77
2023-02-27T10:00:40.587Z,-1.57
2023-02-27T10:03:12.929Z,-1.57
2023-02-27T10:05:49.654Z,-1.64
2023-02-27T10:08:39.118Z,-1.63
2023-02-27T10:11:13.795Z,-1.58
2023-02-27T10:14:25.847Z,-1.37
2023-02-27T10:16:54.003Z,-1.31
2023-02-27T10:19:28.787Z,-1.39
2023-02-27T10:21:58.125Z,-1.48
2023-02-27T10:24:40.404Z,-1.24
2023-02-27T10:27:15.844Z,-1.27
2023-02-27T10:29:42.765Z,-1.61
2023-02-27T10:32:24.884Z,-1.36
2023-02-27T10:35:05.437Z,-1.48
2023-02-27T10:37:32.575Z,-1.37
2023-02-27T10:40:04.439Z,-1.11
2023-02-27T10:42:38.248Z,-1.22
2023-02-27T10:45:06.004Z,-1.12
2023-02-27T10:47:32.709Z,-1.12
2023-02-27T10:50:00.331Z,-0.95
2023-02-27T10:52:26.949Z,-1.08
2023-02-27T10:54:53.647Z,-0.97
2023-02-27T10:57:40.917Z,-0.82
2023-02-27T11:00:23.173Z,-0.89
2023-02-27T11:02:52.202Z,-0.77
2023-02-27T11:05:24.765Z,-0.90
2023-02-27T11:07:51.692Z,-0.83
2023-02-27T11:10:22.073Z,-0.87
2023-02-27T11:13:02.797Z,-0.93
2023-02-27T11:15:32.585Z,-0.93
2023-02-27T11:18:31.345Z,-0.87
2023-02-27T11:21:30.013Z,-0.85
2023-02-27T11:24:08.808Z,-0.91
2023-02-27T11:26:38.913Z,-1.18
2023-02-27T11:29:17.281Z,-0.78
2023-02-27T11:32:13.494Z,-0.91
2023-02-27T11:34:47.830Z,-0.76
2023-02-27T11:37:35.723Z,-0.65
2023-02-27T11:40:14.513Z,-0.61
2023-02-27T11:42:51.081Z,-0.73
2023-02-27T11:46:05.244Z,-0.69
2023-02-27T11:48:17.472Z,-0.69
2023-02-27T11:51:09.244Z,-0.68
2023-02-27T11:54:00.308Z,-0.69
2023-02-27T11:56:35.759Z,-0.62
2023-02-27T11:59:13.605Z,-0.65
2023-02-27T12:01:50.153Z,-0.66
2023-02-27T12:04:24.232Z,-0.60
2023-02-27T12:07:10.727Z,-0.51
2023-02-27T12:10:01.930Z,-0.57
2023-02-27T12:12:36.476Z,-0.64
2023-02-27T12:15:16.634Z,-0.55
2023-02-27T12:17:58.133Z,-0.53
2023-02-27T12:20:43.367Z,-0.63
2023-02-27T12:23:19.477Z,-0.72
2023-02-27T12:25:52.636Z,-0.83
2023-02-27T12:28:43.302Z,-0.75
2023-02-27T12:31:35.939Z,-0.92
2023-02-27T12:34:12.824Z,-0.84
2023-02-27T12:36:39.317Z,-0.83
2023-02-27T12:39:22.508Z,-0.91
2023-02-27T12:42:33.095Z,-0.72
2023-02-27T12:45:02.664Z,-0.75
2023-02-27T12:48:06.806Z,-0.74
2023-02-27T12:50:56.056Z,-0.83
2023-02-27T12:54:08.212Z,-0.81
2023-02-27T12:56:50.442Z,-0.87
2023-02-27T12:59:39.960Z,-0.77
2023-02-27T13:02:35.801Z,-0.73
2023-02-27T13:05:29.893Z,-0.59
2023-02-27T13:08:34.010Z,-0.56
2023-02-27T13:11:11.287Z,-0.71
2023-02-27T13:13:48.817Z,-0.63
2023-02-27T13:16:19.854Z,-0.74
2023-02-27T13:18:58.850Z,-0.75
2023-02-27T13:21:25.981Z,-0.72
2023-02-27T13:24:01.986Z,-0.80
2023-02-27T13:26:38.225Z,-0.77
2023-02-27T13:29:06.408Z,-0.83
2023-02-27T13:32:04.924Z,-0.70
2023-02-27T13:34:46.494Z,-0.63
2023-02-27T13:37:12.960Z,-0.63
2023-02-27T13:39:39.767Z,-0.67
2023-02-27T13:42:35.556Z,-0.59
2023-02-27T13:45:05.133Z,-0.66
2023-02-27T13:47:40.727Z,-0.64
2023-02-27T13:50:21.103Z,-0.60
2023-02-27T13:52:47.946Z,-0.68
2023-02-27T13:55:28.484Z,-0.61
2023-02-27T13:57:58.867Z,-0.68
2023-02-27T14:00:29.055Z,-0.57
2023-02-27T14:03:00.469Z,-0.58
2023-02-27T14:05:35.873Z,-0.63
2023-02-27T14:08:23.266Z,-0.53
2023-02-27T14:11:29.029Z,-0.56
2023-02-27T14:13:57.607Z,-0.74
2023-02-27T14:16:39.856Z,-0.79
2023-02-27T14:19:17.142Z,-0.94
2023-02-27T14:22:01.154Z,-0.95
2023-02-27T14:25:01.131Z,-0.93
2023-02-27T14:27:48.044Z,-1.01
2023-02-27T14:30:40.892Z,-0.83
2023-02-27T14:33:33.372Z,-0.93
2023-02-27T14:36:10.859Z,-0.96
2023-02-27T14:38:39.067Z,-0.88
2023-02-27T14:41:48.234Z,-0.72
2023-02-27T14:44:45.735Z,-0.70
2023-02-27T14:47:24.494Z,-0.88
2023-02-27T14:49:51.586Z,-0.83
2023-02-27T14:52:29.696Z,-1.05
2023-02-27T14:55:29.534Z,-0.88
2023-02-27T14:58:27.061Z,-1.03
2023-02-27T15:01:10.192Z,-1.01
2023-02-27T15:03:49.230Z,-1.12
2023-02-27T15:06:19.380Z,-1.13
2023-02-27T15:08:57.428Z,-1.07
2023-02-27T15:11:25.375Z,-1.09
2023-02-27T15:14:59.219Z,-0.95
2023-02-27T15:17:39.173Z,-1.01
2023-02-27T15:20:30.075Z,-0.92
2023-02-27T15:22:58.021Z,-1.10
2023-02-27T15:25:37.330Z,-1.13
2023-02-27T15:28:23.023Z,-0.88
2023-02-27T15:30:53.695Z,-0.88
2023-02-27T15:33:28.303Z,-1.07
2023-02-27T15:35:55.980Z,-1.04
2023-02-27T15:38:35.254Z,-0.95
2023-02-27T15:41:03.703Z,-0.86
2023-02-27T15:43:31.152Z,-0.89
2023-02-27T15:45:58.400Z,-0.94
2023-02-27T15:48:25.693Z,-0.99
2023-02-27T15:50:56.700Z,-1.00
2023-02-27T15:53:25.776Z,-1.08
2023-02-27T15:55:57.919Z,-0.97
2023-02-27T15:58:29.584Z,-0.90
2023-02-27T16:01:02.601Z,-1.01
2023-02-27T16:03:34.787Z,-1.07
2023-02-27T16:06:01.517Z,-1.04
2023-02-27T16:08:56.358Z,-0.94
2023-02-27T16:11:31.912Z,-1.01
2023-02-27T16:13:59.284Z,-0.97
2023-02-27T16:16:34.953Z,-0.88
2023-02-27T16:19:24.367Z,-0.97
2023-02-27T16:22:13.735Z,-1.08
2023-02-27T16:24:40.867Z,-1.26
2023-02-27T16:27:25.811Z,-1.10
2023-02-27T16:29:56.687Z,-1.17
2023-02-27T16:32:56.442Z,-1.13
2023-02-27T16:35:23.732Z,-1.30
2023-02-27T16:37:51.407Z,-1.19
2023-02-27T16:40:27.335Z,-1.26
2023-02-27T16:42:57.271Z,-1.20
2023-02-27T16:45:26.513Z,-1.25
2023-02-27T16:47:56.948Z,-1.22
2023-02-27T16:50:38.608Z,-1.29
2023-02-27T16:53:06.880Z,-1.36
2023-02-27T16:55:33.926Z,-1.38
2023-02-27T16:58:00.663Z,-1.39
2023-02-27T17:00:27.130Z,-1.53
2023-02-27T17:02:54.716Z,-1.49
2023-02-27T17:05:21.236Z,-1.52
2023-02-27T17:07:48.663Z,-1.40
2023-02-27T17:10:17.189Z,-1.41
2023-02-27T17:12:44.125Z,-1.57
2023-02-27T17:15:10.867Z,-1.57
2023-02-27T17:17:37.735Z,-1.52
2023-02-27T17:20:07.218Z,-1.65
2023-02-27T17:22:39.390Z,-1.45
2023-02-27T17:25:07.442Z,-1.45
2023-02-27T17:27:34.229Z,-1.35
2023-02-27T17:30:00.794Z,-1.66
2023-02-27T17:32:27.304Z,-1.44
2023-02-27T17:34:55.223Z,-1.76
2023-02-27T17:37:22.122Z,-1.34
2023-02-27T17:39:49.193Z,-1.40
2023-02-27T17:42:18.461Z,-1.77
2023-02-27T17:44:46.386Z,-1.68
2023-02-27T17:47:13.433Z,-1.63
2023-02-27T17:49:40.055Z,-1.61
2023-02-27T17:52:09.513Z,-1.57
2023-02-27T17:54:36.140Z,-1.83
2023-02-27T17:57:04.725Z,-1.61
2023-02-27T17:59:31.623Z,-1.83
2023-02-27T18:01:58.518Z,-1.70
2023-02-27T18:04:25.520Z,-1.81
2023-02-27T18:06:52.037Z,-1.85
2023-02-27T18:09:18.472Z,-1.87
2023-02-27T18:11:44.964Z,-1.93
2023-02-27T18:14:11.474Z,-1.88
2023-02-27T18:16:38.022Z,-1.78
2023-02-27T18:19:06.436Z,-1.74
2023-02-27T18:21:33.397Z,-1.76
2023-02-27T18:24:00.260Z,-1.73
2023-02-27T18:26:31.158Z,-1.81
2023-02-27T18:29:04.233Z,-2.00
2023-02-27T18:31:34.255Z,-1.90
2023-02-27T18:34:01.338Z,-1.82
2023-02-27T18:36:29.393Z,-2.01
2023-02-27T18:38:56.405Z,-1.90
2023-02-27T18:41:22.921Z,-1.92
2023-02-27T18:43:49.690Z,-1.85
2023-02-27T18:46:16.623Z,-1.78
2023-02-27T18:48:44.694Z,-1.92
2023-02-27T18:51:14.473Z,-1.85
2023-02-27T18:53:44.237Z,-2.03
2023-02-27T18:56:11.777Z,-2.11
2023-02-27T18:58:38.396Z,-2.08
2023-02-27T19:01:07.250Z,-2.07
2023-02-27T19:03:35.596Z,-2.13
2023-02-27T19:06:03.455Z,-2.16
2023-02-27T19:08:30.360Z,-2.20
2023-02-27T19:10:57.508Z,-2.19
2023-02-27T19:13:26.243Z,-2.29
2023-02-27T19:15:53.542Z,-2.10
2023-02-27T19:18:21.207Z,-2.29
2023-02-27T19:20:47.955Z,-2.28
2023-02-27T19:23:14.405Z,-2.24
2023-02-27T19:25:42.493Z,-2.23
2023-02-27T19:28:11.045Z,-2.29
2023-02-27T19:30:39.515Z,-2.24
2023-02-27T19:33:06.074Z,-2.25
2023-02-27T19:35:32.599Z,-2.49
2023-02-27T19:37:59.130Z,-2.59
2023-02-27T19:40:26.501Z,-2.48
2023-02-27T19:42:52.973Z,-2.40
2023-02-27T19:45:21.541Z,-2.57
2023-02-27T19:47:47.967Z,-2.57
2023-02-27T19:50:14.891Z,-2.38
2023-02-27T19:52:41.348Z,-2.43
2023-02-27T19:55:08.503Z,-2.40
2023-02-27T19:57:36.829Z,-2.35
2023-02-27T20:00:08.640Z,-2.39
2023-02-27T20:02:41.971Z,-2.38
2023-02-27T20:05:08.943Z,-2.44
2023-02-27T20:07:35.404Z,-2.41
2023-02-27T20:10:01.899Z,-2.56
2023-02-27T20:12:28.689Z,-2.38
2023-02-27T20:14:55.148Z,-2.56
2023-02-27T20:17:21.627Z,-2.32
2023-02-27T20:19:48.072Z,-2.20
2023-02-27T20:22:15.866Z,-2.31
2023-02-27T20:24:44.662Z,-2.57
2023-02-27T20:27:12.211Z,-2.31
2023-02-27T20:29:38.831Z,-2.24
2023-02-27T20:32:05.447Z,-2.28
2023-02-27T20:34:32.031Z,-2.13
2023-02-27T20:36:59.793Z,-2.40
2023-02-27T20:39:27.885Z,-2.42
2023-02-27T20:41:54.338Z,-2.44
2023-02-27T20:44:20.801Z,-2.43
2023-02-27T20:46:49.300Z,-2.35
2023-02-27T20:49:20.745Z,-2.37
2023-02-27T20:51:47.411Z,-2.53
2023-02-27T20:54:20.079Z,-2.46
2023-02-27T20:56:48.395Z,-2.37
2023-02-27T20:59:16.612Z,-2.33
2023-02-27T21:01:51.150Z,-2.40
2023-02-27T21:04:42.406Z,-2.40
2023-02-27T21:07:14.626Z,-2.39
2023-02-27T21:09:41.464Z,-2.37
2023-02-27T21:12:09.190Z,-2.27
2023-02-27T21:14:36.319Z,-2.72
2023-02-27T21:17:06.787Z,-2.50
2023-02-27T21:19:33.463Z,-2.39
2023-02-27T21:22:00.160Z,-2.24
2023-02-27T21:24:26.652Z,-2.21
2023-02-27T21:26:53.187Z,-2.27
2023-02-27T21:29:21.227Z,-2.44
2023-02-27T21:31:49.570Z,-2.50
2023-02-27T21:34:25.319Z,-2.44
2023-02-27T21:36:52.553Z,-2.45
2023-02-27T21:39:25.895Z,-2.35
2023-02-27T21:41:53.137Z,-2.48
2023-02-27T21:44:24.838Z,-2.44
2023-02-27T21:46:52.192Z,-2.48
2023-02-27T21:49:22.549Z,-2.43
2023-02-27T21:51:49.892Z,-2.29
2023-02-27T21:54:17.391Z,-2.42
2023-02-27T21:56:45.258Z,-2.40
2023-02-27T21:59:12.259Z,-2.51
2023-02-27T22:01:38.848Z,-2.60
2023-02-27T22:04:06.362Z,-2.51
2023-02-27T22:06:34.154Z,-2.45
2023-02-27T22:09:04.959Z,-2.49
2023-02-27T22:11:32.796Z,-2.40
2023-02-27T22:13:59.245Z,-2.40
2023-02-27T22:16:25.747Z,-2.37
2023-02-27T22:18:52.832Z,-2.41
2023-02-27T22:21:23.366Z,-2.41
2023-02-27T22:23:52.575Z,-2.49
2023-02-27T22:26:25.130Z,-2.38
2023-02-27T22:28:59.303Z,-2.40
2023-02-27T22:31:28.980Z,-2.51
2023-02-27T22:34:00.012Z,-2.45
2023-02-27T22:36:29.153Z,-2.44
2023-02-27T22:38:56.770Z,-2.54
2023-02-27T22:41:28.992Z,-2.51
2023-02-27T22:43:57.392Z,-2.59
2023-02-27T22:46:26.822Z,-2.59
2023-02-27T22:48:55.473Z,-2.71
2023-02-27T22:51:24.451Z,-2.58
2023-02-27T22:53:51.506Z,-2.63
2023-02-27T22:56:17.976Z,-2.63
2023-02-27T22:58:45.473Z,-2.68
2023-02-27T23:01:18.815Z,-2.77
2023-02-27T23:03:47.236Z,-3.00
2023-02-27T23:06:19.973Z,-2.58
2023-02-27T23:08:46.635Z,-2.73
2023-02-27T23:11:14.889Z,-2.73
2023-02-27T23:13:41.714Z,-2.80
2023-02-27T23:16:13.538Z,-2.69
2023-02-27T23:18:46.066Z,-2.81
2023-02-27T23:21:14.239Z,-2.60
2023-02-27T23:23:40.729Z,-2.57
2023-02-27T23:26:07.885Z,-2.63
2023-02-27T23:28:36.709Z,-2.90
2023-02-27T23:31:04.824Z,-2.66
2023-02-27T23:33:31.735Z,-2.60
2023-02-27T23:35:58.612Z,-2.77
2023-02-27T23:38:26.544Z,-2.73
2023-02-27T23:40:54.016Z,-2.70
2023-02-27T23:43:40.036Z,-2.85
2023-02-27T23:46:12.327Z,-2.87
2023-02-27T23:48:39.320Z,-2.88
2023-02-27T23:51:07.108Z,-2.80
2023-02-27T23:53:35.392Z,-2.88
2023-02-27T23:56:11.625Z,-2.80
2023-02-27T23:58:38.072Z,-2.89
